sensor_id;sensor_type;location;lat;lon;timestamp;temperature;humidity
45339;DHT22;31071;51.478;5.710;2023-04-02T00:07:58;7.40;99.90
45339;DHT22;31071;51.478;5.710;2023-04-02T00:10:59;7.30;99.90
45339;DHT22;31071;51.478;5.710;2023-04-02T00:13:45;7.40;99.90
45339;DHT22;31071;51.478;5.710;2023-04-02T00:16:22;7.30;99.90
45339;DHT22;31071;51.478;5.710;2023-04-02T00:18:52;7.30;99.90
45339;DHT22;31071;51.478;5.710;2023-04-02T00:21:25;7.30;99.90
45339;DHT22;31071;51.478;5.710;2023-04-02T00:23:53;7.40;99.90
45339;DHT22;31071;51.478;5.710;2023-04-02T00:26:26;7.40;99.90
45339;DHT22;31071;51.478;5.710;2023-04-02T00:28:53;7.40;99.90
45339;DHT22;31071;51.478;5.710;2023-04-02T00:31:19;7.40;99.90
45339;DHT22;31071;51.478;5.710;2023-04-02T00:33:45;7.40;99.90
45339;DHT22;31071;51.478;5.710;2023-04-02T00:36:12;7.30;99.90
45339;DHT22;31071;51.478;5.710;2023-04-02T00:38:38;7.30;99.90
45339;DHT22;31071;51.478;5.710;2023-04-02T00:41:13;7.30;99.90
45339;DHT22;31071;51.478;5.710;2023-04-02T00:43:43;7.30;99.90
45339;DHT22;31071;51.478;5.710;2023-04-02T00:46:14;7.30;99.90
45339;DHT22;31071;51.478;5.710;2023-04-02T00:48:49;7.30;99.90
45339;DHT22;31071;51.478;5.710;2023-04-02T00:51:26;7.30;99.90
45339;DHT22;31071;51.478;5.710;2023-04-02T00:53:55;7.30;99.90
45339;DHT22;31071;51.478;5.710;2023-04-02T00:56:36;7.30;99.90
45339;DHT22;31071;51.478;5.710;2023-04-02T00:59:03;7.30;99.90
45339;DHT22;31071;51.478;5.710;2023-04-02T01:01:34;7.30;99.90
45339;DHT22;31071;51.478;5.710;2023-04-02T01:04:01;7.30;99.90
45339;DHT22;31071;51.478;5.710;2023-04-02T01:06:29;7.20;99.90
45339;DHT22;31071;51.478;5.710;2023-04-02T01:14:44;7.20;99.90
45339;DHT22;31071;51.478;5.710;2023-04-02T01:25:50;7.00;99.90
45339;DHT22;31071;51.478;5.710;2023-04-02T01:28:23;7.00;99.90
45339;DHT22;31071;51.478;5.710;2023-04-02T01:30:54;7.00;99.90
45339;DHT22;31071;51.478;5.710;2023-04-02T01:33:23;6.90;99.90
45339;DHT22;31071;51.478;5.710;2023-04-02T01:35:59;6.90;99.90
45339;DHT22;31071;51.478;5.710;2023-04-02T01:38:34;6.90;99.90
45339;DHT22;31071;51.478;5.710;2023-04-02T01:41:33;6.90;99.90
45339;DHT22;31071;51.478;5.710;2023-04-02T01:44:05;6.90;99.90
45339;DHT22;31071;51.478;5.710;2023-04-02T01:46:34;6.90;99.90
45339;DHT22;31071;51.478;5.710;2023-04-02T01:49:11;6.90;99.90
45339;DHT22;31071;51.478;5.710;2023-04-02T01:51:41;6.90;99.90
45339;DHT22;31071;51.478;5.710;2023-04-02T01:54:08;6.80;99.90
45339;DHT22;31071;51.478;5.710;2023-04-02T01:56:34;6.80;99.90
45339;DHT22;31071;51.478;5.710;2023-04-02T01:59:00;6.80;99.90
45339;DHT22;31071;51.478;5.710;2023-04-02T02:01:37;6.80;99.90
45339;DHT22;31071;51.478;5.710;2023-04-02T02:04:07;6.80;99.90
45339;DHT22;31071;51.478;5.710;2023-04-02T02:06:34;6.90;99.90
45339;DHT22;31071;51.478;5.710;2023-04-02T02:09:02;6.90;99.90
45339;DHT22;31071;51.478;5.710;2023-04-02T02:11:30;6.80;99.90
45339;DHT22;31071;51.478;5.710;2023-04-02T02:13:59;6.80;99.90
45339;DHT22;31071;51.478;5.710;2023-04-02T02:16:26;6.80;99.90
45339;DHT22;31071;51.478;5.710;2023-04-02T02:18:55;6.70;99.90
45339;DHT22;31071;51.478;5.710;2023-04-02T02:21:44;6.70;99.90
45339;DHT22;31071;51.478;5.710;2023-04-02T02:24:23;6.70;99.90
45339;DHT22;31071;51.478;5.710;2023-04-02T02:27:03;6.60;99.90
45339;DHT22;31071;51.478;5.710;2023-04-02T02:29:34;6.60;99.90
45339;DHT22;31071;51.478;5.710;2023-04-02T02:32:01;6.60;99.90
45339;DHT22;31071;51.478;5.710;2023-04-02T02:34:33;6.50;99.90
45339;DHT22;31071;51.478;5.710;2023-04-02T02:37:22;6.50;99.90
45339;DHT22;31071;51.478;5.710;2023-04-02T02:39:52;6.50;99.90
45339;DHT22;31071;51.478;5.710;2023-04-02T02:42:27;6.50;99.90
45339;DHT22;31071;51.478;5.710;2023-04-02T02:44:56;6.50;99.90
45339;DHT22;31071;51.478;5.710;2023-04-02T02:47:28;6.40;99.90
45339;DHT22;31071;51.478;5.710;2023-04-02T02:49:56;6.50;99.90
45339;DHT22;31071;51.478;5.710;2023-04-02T02:52:30;6.40;99.90
45339;DHT22;31071;51.478;5.710;2023-04-02T02:55:05;6.40;99.90
45339;DHT22;31071;51.478;5.710;2023-04-02T02:57:37;6.40;99.90
45339;DHT22;31071;51.478;5.710;2023-04-02T03:00:05;6.40;99.90
45339;DHT22;31071;51.478;5.710;2023-04-02T03:02:35;6.40;99.90
45339;DHT22;31071;51.478;5.710;2023-04-02T03:05:03;6.50;99.90
45339;DHT22;31071;51.478;5.710;2023-04-02T03:07:30;6.40;99.90
45339;DHT22;31071;51.478;5.710;2023-04-02T03:10:13;6.40;99.90
45339;DHT22;31071;51.478;5.710;2023-04-02T03:12:46;6.40;99.90
45339;DHT22;31071;51.478;5.710;2023-04-02T03:15:26;6.40;99.90
45339;DHT22;31071;51.478;5.710;2023-04-02T03:18:06;6.40;99.90
45339;DHT22;31071;51.478;5.710;2023-04-02T03:20:39;6.40;99.90
45339;DHT22;31071;51.478;5.710;2023-04-02T03:23:12;6.40;99.90
45339;DHT22;31071;51.478;5.710;2023-04-02T03:25:59;6.40;99.90
45339;DHT22;31071;51.478;5.710;2023-04-02T03:28:29;6.40;99.90
45339;DHT22;31071;51.478;5.710;2023-04-02T03:31:09;6.40;99.90
45339;DHT22;31071;51.478;5.710;2023-04-02T03:33:40;6.40;99.90
45339;DHT22;31071;51.478;5.710;2023-04-02T03:36:21;6.30;99.90
45339;DHT22;31071;51.478;5.710;2023-04-02T03:39:36;6.40;99.90
45339;DHT22;31071;51.478;5.710;2023-04-02T03:41:55;6.40;99.90
45339;DHT22;31071;51.478;5.710;2023-04-02T03:47:33;6.20;99.90
45339;DHT22;31071;51.478;5.710;2023-04-02T03:50:16;6.20;99.90
45339;DHT22;31071;51.478;5.710;2023-04-02T03:52:42;6.20;99.90
45339;DHT22;31071;51.478;5.710;2023-04-02T03:55:19;6.20;99.90
45339;DHT22;31071;51.478;5.710;2023-04-02T03:58:16;6.10;99.90
45339;DHT22;31071;51.478;5.710;2023-04-02T04:01:15;6.10;99.90
45339;DHT22;31071;51.478;5.710;2023-04-02T04:03:44;6.10;99.90
45339;DHT22;31071;51.478;5.710;2023-04-02T04:06:23;6.10;99.90
45339;DHT22;31071;51.478;5.710;2023-04-02T04:09:05;6.00;99.90
45339;DHT22;31071;51.478;5.710;2023-04-02T04:11:34;6.00;99.90
45339;DHT22;31071;51.478;5.710;2023-04-02T04:14:16;6.10;99.90
45339;DHT22;31071;51.478;5.710;2023-04-02T04:16:50;6.10;99.90
45339;DHT22;31071;51.478;5.710;2023-04-02T04:19:43;6.00;99.90
45339;DHT22;31071;51.478;5.710;2023-04-02T04:22:26;6.10;99.90
45339;DHT22;31071;51.478;5.710;2023-04-02T04:25:05;6.10;99.90
45339;DHT22;31071;51.478;5.710;2023-04-02T04:27:42;6.10;99.90
45339;DHT22;31071;51.478;5.710;2023-04-02T04:30:43;6.10;99.90
45339;DHT22;31071;51.478;5.710;2023-04-02T04:33:26;5.90;99.90
45339;DHT22;31071;51.478;5.710;2023-04-02T04:35:59;5.90;99.90
45339;DHT22;31071;51.478;5.710;2023-04-02T04:38:37;5.80;99.90
45339;DHT22;31071;51.478;5.710;2023-04-02T04:41:15;5.70;99.90
45339;DHT22;31071;51.478;5.710;2023-04-02T04:43:51;5.80;99.90
45339;DHT22;31071;51.478;5.710;2023-04-02T04:46:26;5.80;99.90
45339;DHT22;31071;51.478;5.710;2023-04-02T04:49:26;5.80;99.90
45339;DHT22;31071;51.478;5.710;2023-04-02T04:51:59;5.80;99.90
45339;DHT22;31071;51.478;5.710;2023-04-02T04:54:30;5.80;99.90
45339;DHT22;31071;51.478;5.710;2023-04-02T04:57:00;5.80;99.90
45339;DHT22;31071;51.478;5.710;2023-04-02T04:59:44;5.80;99.90
45339;DHT22;31071;51.478;5.710;2023-04-02T05:02:17;5.70;99.90
45339;DHT22;31071;51.478;5.710;2023-04-02T05:04:49;5.70;99.90
45339;DHT22;31071;51.478;5.710;2023-04-02T05:07:28;5.60;99.90
45339;DHT22;31071;51.478;5.710;2023-04-02T05:10:03;5.60;99.90
45339;DHT22;31071;51.478;5.710;2023-04-02T05:12:55;5.60;99.90
45339;DHT22;31071;51.478;5.710;2023-04-02T05:23:46;5.40;99.90
45339;DHT22;31071;51.478;5.710;2023-04-02T05:29:23;5.40;99.90
45339;DHT22;31071;51.478;5.710;2023-04-02T05:32:20;5.40;99.90
45339;DHT22;31071;51.478;5.710;2023-04-02T05:34:50;5.40;99.90
45339;DHT22;31071;51.478;5.710;2023-04-02T05:37:22;5.40;99.90
45339;DHT22;31071;51.478;5.710;2023-04-02T05:39:57;5.50;99.90
45339;DHT22;31071;51.478;5.710;2023-04-02T05:42:28;5.40;99.90
45339;DHT22;31071;51.478;5.710;2023-04-02T05:45:12;5.40;99.90
45339;DHT22;31071;51.478;5.710;2023-04-02T05:47:41;5.50;99.90
45339;DHT22;31071;51.478;5.710;2023-04-02T05:52:40;5.50;99.90
45339;DHT22;31071;51.478;5.710;2023-04-02T05:57:55;5.40;99.90
45339;DHT22;31071;51.478;5.710;2023-04-02T06:03:05;5.40;99.90
45339;DHT22;31071;51.478;5.710;2023-04-02T06:05:38;5.40;99.90
45339;DHT22;31071;51.478;5.710;2023-04-02T06:08:13;5.40;99.90
45339;DHT22;31071;51.478;5.710;2023-04-02T06:11:06;5.30;99.90
45339;DHT22;31071;51.478;5.710;2023-04-02T06:13:34;5.30;99.90
45339;DHT22;31071;51.478;5.710;2023-04-02T06:16:00;5.30;99.90
45339;DHT22;31071;51.478;5.710;2023-04-02T06:18:31;5.40;99.90
45339;DHT22;31071;51.478;5.710;2023-04-02T06:20:58;5.30;99.90
45339;DHT22;31071;51.478;5.710;2023-04-02T06:23:58;5.30;99.90
45339;DHT22;31071;51.478;5.710;2023-04-02T06:26:38;5.30;99.90
45339;DHT22;31071;51.478;5.710;2023-04-02T06:29:53;5.30;99.90
45339;DHT22;31071;51.478;5.710;2023-04-02T06:32:05;5.30;99.90
45339;DHT22;31071;51.478;5.710;2023-04-02T06:34:31;5.30;99.90
45339;DHT22;31071;51.478;5.710;2023-04-02T06:37:03;5.20;99.90
45339;DHT22;31071;51.478;5.710;2023-04-02T06:39:35;5.30;99.90
45339;DHT22;31071;51.478;5.710;2023-04-02T06:42:05;5.30;99.90
45339;DHT22;31071;51.478;5.710;2023-04-02T06:44:35;5.30;99.90
45339;DHT22;31071;51.478;5.710;2023-04-02T06:47:06;5.30;99.90
45339;DHT22;31071;51.478;5.710;2023-04-02T06:50:08;5.30;99.90
45339;DHT22;31071;51.478;5.710;2023-04-02T06:52:49;5.30;99.90
45339;DHT22;31071;51.478;5.710;2023-04-02T06:58:11;5.30;99.90
45339;DHT22;31071;51.478;5.710;2023-04-02T07:00:41;5.40;99.90
45339;DHT22;31071;51.478;5.710;2023-04-02T07:03:14;5.40;99.90
45339;DHT22;31071;51.478;5.710;2023-04-02T07:05:40;5.40;99.90
45339;DHT22;31071;51.478;5.710;2023-04-02T07:08:06;5.50;99.90
45339;DHT22;31071;51.478;5.710;2023-04-02T07:10:32;5.50;99.90
45339;DHT22;31071;51.478;5.710;2023-04-02T07:12:58;5.50;99.90
45339;DHT22;31071;51.478;5.710;2023-04-02T07:15:27;5.50;99.90
45339;DHT22;31071;51.478;5.710;2023-04-02T07:17:53;5.60;99.90
45339;DHT22;31071;51.478;5.710;2023-04-02T07:20:28;5.60;99.90
45339;DHT22;31071;51.478;5.710;2023-04-02T07:22:55;5.80;99.90
45339;DHT22;31071;51.478;5.710;2023-04-02T07:25:21;5.80;99.90
45339;DHT22;31071;51.478;5.710;2023-04-02T07:27:47;5.80;99.90
45339;DHT22;31071;51.478;5.710;2023-04-02T07:30:13;5.90;99.90
45339;DHT22;31071;51.478;5.710;2023-04-02T07:32:39;5.90;99.90
45339;DHT22;31071;51.478;5.710;2023-04-02T07:35:05;6.00;99.90
45339;DHT22;31071;51.478;5.710;2023-04-02T07:37:31;5.90;99.90
45339;DHT22;31071;51.478;5.710;2023-04-02T07:39:56;5.90;99.90
45339;DHT22;31071;51.478;5.710;2023-04-02T07:42:22;5.70;99.90
45339;DHT22;31071;51.478;5.710;2023-04-02T07:44:47;5.80;99.90
45339;DHT22;31071;51.478;5.710;2023-04-02T07:47:13;5.80;99.90
45339;DHT22;31071;51.478;5.710;2023-04-02T07:49:38;5.80;99.90
45339;DHT22;31071;51.478;5.710;2023-04-02T07:52:04;5.80;99.90
45339;DHT22;31071;51.478;5.710;2023-04-02T07:54:29;6.00;99.90
45339;DHT22;31071;51.478;5.710;2023-04-02T07:56:55;5.80;99.90
45339;DHT22;31071;51.478;5.710;2023-04-02T07:59:21;5.90;99.90
45339;DHT22;31071;51.478;5.710;2023-04-02T08:01:46;5.90;99.90
45339;DHT22;31071;51.478;5.710;2023-04-02T08:04:20;6.00;99.90
45339;DHT22;31071;51.478;5.710;2023-04-02T08:06:47;6.30;99.90
45339;DHT22;31071;51.478;5.710;2023-04-02T08:09:14;6.30;99.90
45339;DHT22;31071;51.478;5.710;2023-04-02T08:11:40;6.20;99.90
45339;DHT22;31071;51.478;5.710;2023-04-02T08:14:09;6.30;99.90
45339;DHT22;31071;51.478;5.710;2023-04-02T08:16:52;6.20;99.90
45339;DHT22;31071;51.478;5.710;2023-04-02T08:19:19;6.00;99.90
45339;DHT22;31071;51.478;5.710;2023-04-02T08:21:45;5.90;99.90
45339;DHT22;31071;51.478;5.710;2023-04-02T08:24:12;6.00;99.90
45339;DHT22;31071;51.478;5.710;2023-04-02T08:26:37;5.90;99.90
45339;DHT22;31071;51.478;5.710;2023-04-02T08:29:03;5.90;99.90
45339;DHT22;31071;51.478;5.710;2023-04-02T08:31:28;6.10;99.90
45339;DHT22;31071;51.478;5.710;2023-04-02T08:33:54;6.00;99.90
45339;DHT22;31071;51.478;5.710;2023-04-02T08:36:27;5.90;99.90
45339;DHT22;31071;51.478;5.710;2023-04-02T08:38:53;5.90;99.90
45339;DHT22;31071;51.478;5.710;2023-04-02T08:41:21;5.90;99.90
45339;DHT22;31071;51.478;5.710;2023-04-02T08:44:14;6.00;99.90
45339;DHT22;31071;51.478;5.710;2023-04-02T08:46:44;5.80;99.90
45339;DHT22;31071;51.478;5.710;2023-04-02T08:49:15;5.80;99.90
45339;DHT22;31071;51.478;5.710;2023-04-02T08:51:41;6.00;99.90
45339;DHT22;31071;51.478;5.710;2023-04-02T08:54:29;5.90;99.90
45339;DHT22;31071;51.478;5.710;2023-04-02T08:57:20;6.00;99.90
45339;DHT22;31071;51.478;5.710;2023-04-02T08:59:54;6.20;99.90
45339;DHT22;31071;51.478;5.710;2023-04-02T09:02:51;6.00;99.90
45339;DHT22;31071;51.478;5.710;2023-04-02T09:05:17;6.00;99.90
45339;DHT22;31071;51.478;5.710;2023-04-02T09:07:46;6.00;99.90
45339;DHT22;31071;51.478;5.710;2023-04-02T09:10:15;6.20;99.90
45339;DHT22;31071;51.478;5.710;2023-04-02T09:12:44;6.50;99.90
45339;DHT22;31071;51.478;5.710;2023-04-02T09:17:40;6.90;99.90
45339;DHT22;31071;51.478;5.710;2023-04-02T09:20:24;7.00;99.90
45339;DHT22;31071;51.478;5.710;2023-04-02T09:22:51;6.90;99.90
45339;DHT22;31071;51.478;5.710;2023-04-02T09:25:26;7.10;99.90
45339;DHT22;31071;51.478;5.710;2023-04-02T09:27:55;7.00;99.90
45339;DHT22;31071;51.478;5.710;2023-04-02T09:32:58;6.80;99.90
45339;DHT22;31071;51.478;5.710;2023-04-02T09:35:31;7.10;99.90
45339;DHT22;31071;51.478;5.710;2023-04-02T09:40:34;7.20;99.90
45339;DHT22;31071;51.478;5.710;2023-04-02T09:43:30;7.30;99.90
45339;DHT22;31071;51.478;5.710;2023-04-02T09:48:54;7.10;99.90
45339;DHT22;31071;51.478;5.710;2023-04-02T09:51:24;7.10;99.90
45339;DHT22;31071;51.478;5.710;2023-04-02T09:54:06;7.10;99.90
45339;DHT22;31071;51.478;5.710;2023-04-02T09:56:34;7.20;99.90
45339;DHT22;31071;51.478;5.710;2023-04-02T10:01:42;7.20;99.90
45339;DHT22;31071;51.478;5.710;2023-04-02T10:04:35;7.40;99.90
45339;DHT22;31071;51.478;5.710;2023-04-02T10:07:04;7.40;99.90
45339;DHT22;31071;51.478;5.710;2023-04-02T10:09:35;7.20;99.90
45339;DHT22;31071;51.478;5.710;2023-04-02T10:12:03;7.30;99.90
45339;DHT22;31071;51.478;5.710;2023-04-02T10:14:37;7.20;99.90
45339;DHT22;31071;51.478;5.710;2023-04-02T10:19:47;7.20;99.90
45339;DHT22;31071;51.478;5.710;2023-04-02T10:22:19;7.30;99.90
45339;DHT22;31071;51.478;5.710;2023-04-02T10:24:46;7.00;99.90
45339;DHT22;31071;51.478;5.710;2023-04-02T10:33:04;6.80;99.90
45339;DHT22;31071;51.478;5.710;2023-04-02T10:35:47;7.00;99.90
45339;DHT22;31071;51.478;5.710;2023-04-02T10:40:58;7.20;99.90
45339;DHT22;31071;51.478;5.710;2023-04-02T10:43:56;7.30;99.90
45339;DHT22;31071;51.478;5.710;2023-04-02T10:49:12;7.30;99.90
45339;DHT22;31071;51.478;5.710;2023-04-02T10:51:44;7.30;99.90
45339;DHT22;31071;51.478;5.710;2023-04-02T10:54:32;7.40;99.90
45339;DHT22;31071;51.478;5.710;2023-04-02T10:57:17;7.40;99.90
45339;DHT22;31071;51.478;5.710;2023-04-02T11:02:53;7.60;99.90
45339;DHT22;31071;51.478;5.710;2023-04-02T11:05:34;7.60;99.90
45339;DHT22;31071;51.478;5.710;2023-04-02T11:10:44;8.00;99.90
45339;DHT22;31071;51.478;5.710;2023-04-02T11:13:21;7.90;99.90
45339;DHT22;31071;51.478;5.710;2023-04-02T11:15:48;7.80;99.90
45339;DHT22;31071;51.478;5.710;2023-04-02T11:18:30;8.40;99.90
45339;DHT22;31071;51.478;5.710;2023-04-02T11:21:36;8.00;99.90
45339;DHT22;31071;51.478;5.710;2023-04-02T11:24:02;8.00;99.90
45339;DHT22;31071;51.478;5.710;2023-04-02T11:26:39;7.90;99.90
45339;DHT22;31071;51.478;5.710;2023-04-02T11:31:50;8.40;99.90
45339;DHT22;31071;51.478;5.710;2023-04-02T11:37:09;8.80;99.90
45339;DHT22;31071;51.478;5.710;2023-04-02T11:39:53;8.40;99.90
45339;DHT22;31071;51.478;5.710;2023-04-02T11:44:49;8.20;99.90
45339;DHT22;31071;51.478;5.710;2023-04-02T11:47:23;8.30;99.90
45339;DHT22;31071;51.478;5.710;2023-04-02T11:52:52;8.90;99.90
45339;DHT22;31071;51.478;5.710;2023-04-02T11:55:23;8.90;99.90
45339;DHT22;31071;51.478;5.710;2023-04-02T11:58:17;8.90;99.90
45339;DHT22;31071;51.478;5.710;2023-04-02T12:04:10;9.00;99.90
45339;DHT22;31071;51.478;5.710;2023-04-02T12:07:05;8.80;99.90
45339;DHT22;31071;51.478;5.710;2023-04-02T12:09:50;8.70;99.90
45339;DHT22;31071;51.478;5.710;2023-04-02T12:14:50;8.90;99.90
45339;DHT22;31071;51.478;5.710;2023-04-02T12:17:36;9.10;99.90
45339;DHT22;31071;51.478;5.710;2023-04-02T12:22:54;9.20;99.90
45339;DHT22;31071;51.478;5.710;2023-04-02T12:30:33;8.80;99.90
45339;DHT22;31071;51.478;5.710;2023-04-02T12:35:45;8.30;99.90
45339;DHT22;31071;51.478;5.710;2023-04-02T12:38:26;8.30;99.90
45339;DHT22;31071;51.478;5.710;2023-04-02T12:41:00;8.30;99.90
45339;DHT22;31071;51.478;5.710;2023-04-02T12:43:31;8.50;99.90
45339;DHT22;31071;51.478;5.710;2023-04-02T12:45:59;8.40;99.90
45339;DHT22;31071;51.478;5.710;2023-04-02T12:48:25;8.60;99.90
45339;DHT22;31071;51.478;5.710;2023-04-02T12:50:52;8.70;99.90
45339;DHT22;31071;51.478;5.710;2023-04-02T12:53:48;8.90;99.90
45339;DHT22;31071;51.478;5.710;2023-04-02T12:56:19;8.60;99.90
45339;DHT22;31071;51.478;5.710;2023-04-02T12:58:52;8.50;99.90
45339;DHT22;31071;51.478;5.710;2023-04-02T13:01:26;8.60;99.90
45339;DHT22;31071;51.478;5.710;2023-04-02T13:04:05;9.60;99.90
45339;DHT22;31071;51.478;5.710;2023-04-02T13:06:32;11.70;97.20
45339;DHT22;31071;51.478;5.710;2023-04-02T13:08:59;12.30;92.70
45339;DHT22;31071;51.478;5.710;2023-04-02T13:11:39;12.80;92.10
45339;DHT22;31071;51.478;5.710;2023-04-02T13:14:12;12.50;91.90
45339;DHT22;31071;51.478;5.710;2023-04-02T13:16:41;12.40;91.30
45339;DHT22;31071;51.478;5.710;2023-04-02T13:19:19;14.00;87.70
45339;DHT22;31071;51.478;5.710;2023-04-02T13:21:46;15.00;84.90
45339;DHT22;31071;51.478;5.710;2023-04-02T13:24:23;15.50;79.80
45339;DHT22;31071;51.478;5.710;2023-04-02T13:26:49;16.90;73.30
45339;DHT22;31071;51.478;5.710;2023-04-02T13:29:36;17.50;73.90
45339;DHT22;31071;51.478;5.710;2023-04-02T13:32:03;18.00;70.10
45339;DHT22;31071;51.478;5.710;2023-04-02T13:34:29;17.90;68.60
45339;DHT22;31071;51.478;5.710;2023-04-02T13:36:55;17.70;66.80
45339;DHT22;31071;51.478;5.710;2023-04-02T13:39:24;17.30;68.50
45339;DHT22;31071;51.478;5.710;2023-04-02T13:41:58;16.30;70.40
45339;DHT22;31071;51.478;5.710;2023-04-02T13:44:26;14.50;70.20
45339;DHT22;31071;51.478;5.710;2023-04-02T13:46:53;13.50;74.50
45339;DHT22;31071;51.478;5.710;2023-04-02T13:49:20;12.40;82.40
45339;DHT22;31071;51.478;5.710;2023-04-02T13:51:49;14.00;77.90
45339;DHT22;31071;51.478;5.710;2023-04-02T13:54:27;15.30;75.80
45339;DHT22;31071;51.478;5.710;2023-04-02T13:56:56;16.30;67.80
45339;DHT22;31071;51.478;5.710;2023-04-02T13:59:22;16.30;70.60
45339;DHT22;31071;51.478;5.710;2023-04-02T14:01:50;16.60;69.10
45339;DHT22;31071;51.478;5.710;2023-04-02T14:04:20;18.20;68.50
45339;DHT22;31071;51.478;5.710;2023-04-02T14:07:06;16.60;65.10
45339;DHT22;31071;51.478;5.710;2023-04-02T14:18:33;16.30;65.90
45339;DHT22;31071;51.478;5.710;2023-04-02T14:21:16;16.30;66.20
45339;DHT22;31071;51.478;5.710;2023-04-02T14:23:50;16.10;67.50
45339;DHT22;31071;51.478;5.710;2023-04-02T14:29:30;16.60;64.40
45339;DHT22;31071;51.478;5.710;2023-04-02T14:40:25;13.70;70.70
45339;DHT22;31071;51.478;5.710;2023-04-02T14:42:59;13.20;76.70
45339;DHT22;31071;51.478;5.710;2023-04-02T14:45:48;12.90;77.40
45339;DHT22;31071;51.478;5.710;2023-04-02T14:48:32;13.00;75.50
45339;DHT22;31071;51.478;5.710;2023-04-02T14:51:14;13.00;75.20
45339;DHT22;31071;51.478;5.710;2023-04-02T14:53:49;13.40;74.00
45339;DHT22;31071;51.478;5.710;2023-04-02T14:56:19;13.20;76.90
45339;DHT22;31071;51.478;5.710;2023-04-02T14:58:48;13.10;76.70
45339;DHT22;31071;51.478;5.710;2023-04-02T15:01:46;13.10;74.30
45339;DHT22;31071;51.478;5.710;2023-04-02T15:04:33;13.10;77.70
45339;DHT22;31071;51.478;5.710;2023-04-02T15:07:32;13.20;77.00
45339;DHT22;31071;51.478;5.710;2023-04-02T15:10:53;13.00;77.40
45339;DHT22;31071;51.478;5.710;2023-04-02T15:12:52;12.90;76.40
45339;DHT22;31071;51.478;5.710;2023-04-02T15:18:13;12.70;77.00
45339;DHT22;31071;51.478;5.710;2023-04-02T15:26:24;11.90;82.40
45339;DHT22;31071;51.478;5.710;2023-04-02T15:31:54;11.60;81.50
45339;DHT22;31071;51.478;5.710;2023-04-02T15:34:37;11.70;85.60
45339;DHT22;31071;51.478;5.710;2023-04-02T15:37:38;11.70;82.40
45339;DHT22;31071;51.478;5.710;2023-04-02T15:40:02;12.00;80.30
45339;DHT22;31071;51.478;5.710;2023-04-02T15:42:38;12.40;79.60
45339;DHT22;31071;51.478;5.710;2023-04-02T15:47:57;12.20;78.80
45339;DHT22;31071;51.478;5.710;2023-04-02T15:50:45;11.80;79.60
45339;DHT22;31071;51.478;5.710;2023-04-02T15:53:25;11.40;80.40
45339;DHT22;31071;51.478;5.710;2023-04-02T15:58:53;11.70;77.70
45339;DHT22;31071;51.478;5.710;2023-04-02T16:01:35;11.90;80.80
45339;DHT22;31071;51.478;5.710;2023-04-02T16:04:25;11.90;81.90
45339;DHT22;31071;51.478;5.710;2023-04-02T16:10:16;12.00;82.80
45339;DHT22;31071;51.478;5.710;2023-04-02T16:12:46;11.90;81.70
45339;DHT22;31071;51.478;5.710;2023-04-02T16:15:26;12.00;84.40
45339;DHT22;31071;51.478;5.710;2023-04-02T16:17:57;11.80;80.40
45339;DHT22;31071;51.478;5.710;2023-04-02T16:20:31;11.40;78.50
45339;DHT22;31071;51.478;5.710;2023-04-02T16:23:27;10.90;84.20
45339;DHT22;31071;51.478;5.710;2023-04-02T16:29:01;10.70;86.50
45339;DHT22;31071;51.478;5.710;2023-04-02T16:31:55;10.60;86.20
45339;DHT22;31071;51.478;5.710;2023-04-02T16:37:27;10.70;87.70
45339;DHT22;31071;51.478;5.710;2023-04-02T16:39:51;10.50;90.10
45339;DHT22;31071;51.478;5.710;2023-04-02T16:45:00;10.00;89.40
45339;DHT22;31071;51.478;5.710;2023-04-02T16:47:45;9.90;90.30
45339;DHT22;31071;51.478;5.710;2023-04-02T16:53:19;9.80;90.50
45339;DHT22;31071;51.478;5.710;2023-04-02T16:56:04;9.80;91.60
45339;DHT22;31071;51.478;5.710;2023-04-02T16:58:53;9.80;90.40
45339;DHT22;31071;51.478;5.710;2023-04-02T17:04:44;9.80;91.20
45339;DHT22;31071;51.478;5.710;2023-04-02T17:10:06;9.80;90.60
45339;DHT22;31071;51.478;5.710;2023-04-02T17:12:48;9.80;90.90
45339;DHT22;31071;51.478;5.710;2023-04-02T17:15:26;9.70;92.00
45339;DHT22;31071;51.478;5.710;2023-04-02T17:17:57;9.50;93.40
45339;DHT22;31071;51.478;5.710;2023-04-02T17:20:25;9.50;92.70
45339;DHT22;31071;51.478;5.710;2023-04-02T17:22:52;9.60;92.30
45339;DHT22;31071;51.478;5.710;2023-04-02T17:25:23;9.50;91.70
45339;DHT22;31071;51.478;5.710;2023-04-02T17:27:53;9.40;92.20
45339;DHT22;31071;51.478;5.710;2023-04-02T17:30:34;9.30;93.40
45339;DHT22;31071;51.478;5.710;2023-04-02T17:33:06;9.20;93.40
45339;DHT22;31071;51.478;5.710;2023-04-02T17:35:39;9.20;96.50
45339;DHT22;31071;51.478;5.710;2023-04-02T17:38:16;9.20;94.30
45339;DHT22;31071;51.478;5.710;2023-04-02T17:41:01;9.10;94.10
45339;DHT22;31071;51.478;5.710;2023-04-02T17:43:47;9.00;93.40
45339;DHT22;31071;51.478;5.710;2023-04-02T17:46:28;8.80;94.40
45339;DHT22;31071;51.478;5.710;2023-04-02T17:49:10;8.70;94.70
45339;DHT22;31071;51.478;5.710;2023-04-02T17:52:02;8.70;95.80
45339;DHT22;31071;51.478;5.710;2023-04-02T18:05:54;8.20;97.90
45339;DHT22;31071;51.478;5.710;2023-04-02T18:18:48;7.70;99.00
45339;DHT22;31071;51.478;5.710;2023-04-02T18:21:38;7.70;99.40
45339;DHT22;31071;51.478;5.710;2023-04-02T18:24:47;7.60;99.10
45339;DHT22;31071;51.478;5.710;2023-04-02T18:27:36;7.50;99.90
45339;DHT22;31071;51.478;5.710;2023-04-02T18:30:25;7.40;99.60
45339;DHT22;31071;51.478;5.710;2023-04-02T18:33:03;7.30;99.80
45339;DHT22;31071;51.478;5.710;2023-04-02T18:35:43;7.20;99.90
45339;DHT22;31071;51.478;5.710;2023-04-02T18:38:30;7.10;99.90
45339;DHT22;31071;51.478;5.710;2023-04-02T18:41:25;7.00;99.90
45339;DHT22;31071;51.478;5.710;2023-04-02T18:52:04;6.70;99.90
45339;DHT22;31071;51.478;5.710;2023-04-02T18:54:43;6.60;99.90
45339;DHT22;31071;51.478;5.710;2023-04-02T18:57:25;6.50;99.90
45339;DHT22;31071;51.478;5.710;2023-04-02T19:00:20;6.40;99.90
45339;DHT22;31071;51.478;5.710;2023-04-02T19:02:55;6.30;99.90
45339;DHT22;31071;51.478;5.710;2023-04-02T19:05:31;6.10;99.90
45339;DHT22;31071;51.478;5.710;2023-04-02T19:08:11;6.10;99.90
45339;DHT22;31071;51.478;5.710;2023-04-02T19:10:42;6.00;99.90
45339;DHT22;31071;51.478;5.710;2023-04-02T19:13:14;5.80;99.90
45339;DHT22;31071;51.478;5.710;2023-04-02T19:18:47;5.70;99.90
45339;DHT22;31071;51.478;5.710;2023-04-02T19:24:16;5.60;99.90
45339;DHT22;31071;51.478;5.710;2023-04-02T19:43:53;5.00;99.90
45339;DHT22;31071;51.478;5.710;2023-04-02T19:46:19;4.90;99.90
45339;DHT22;31071;51.478;5.710;2023-04-02T19:51:16;4.70;99.90
45339;DHT22;31071;51.478;5.710;2023-04-02T19:53:42;4.60;99.90
45339;DHT22;31071;51.478;5.710;2023-04-02T19:56:07;4.50;99.90
45339;DHT22;31071;51.478;5.710;2023-04-02T19:58:34;4.50;99.90
45339;DHT22;31071;51.478;5.710;2023-04-02T20:01:00;4.40;99.90
45339;DHT22;31071;51.478;5.710;2023-04-02T20:03:26;4.50;99.90
45339;DHT22;31071;51.478;5.710;2023-04-02T20:05:52;4.40;99.90
45339;DHT22;31071;51.478;5.710;2023-04-02T20:08:17;4.40;99.90
45339;DHT22;31071;51.478;5.710;2023-04-02T20:10:43;4.30;99.90